Time;durP1;ratioP1;P1;durP2;ratioP2;P2;SDS_P1;SDS_P2;PMS_P1;PMS_P2;Temp;Humidity;BMP_temperature;BMP_pressure;BME280_temperature;BME280_humidity;BME280_pressure;Samples;Min_cycle;Max_cycle;Signal;HPM_P1;HPM_P2
2022/07/01 00:00:20;;;;;;;1.53;1.03;;;;;;;24.91;52.82;98856.00;6069004;23;20172;-90
2022/07/01 00:02:46;;;;;;;2.40;1.13;;;;;;;24.89;53.04;98854.50;6069305;23;20175;-90
2022/07/01 00:05:11;;;;;;;3.63;0.93;;;;;;;24.91;52.78;98850.63;6069022;23;20153;-90
2022/07/01 00:07:37;;;;;;;2.27;0.70;;;;;;;24.90;52.32;98846.25;6068968;23;20563;-90
2022/07/01 00:10:04;;;;;;;1.07;0.70;;;;;;;24.91;51.79;98847.94;6068800;23;20189;-90
2022/07/01 00:12:30;;;;;;;4.83;1.23;;;;;;;24.96;51.20;98853.59;6068706;23;20149;-90
2022/07/01 00:14:55;;;;;;;1.77;0.83;;;;;;;24.94;50.33;98844.91;6068854;23;20150;-90
2022/07/01 00:17:21;;;;;;;1.60;0.57;;;;;;;24.91;50.28;98844.44;6069175;23;20153;-90
2022/07/01 00:19:48;;;;;;;1.37;0.50;;;;;;;24.80;50.25;98840.31;6043703;23;20228;-90
2022/07/01 00:22:13;;;;;;;2.50;1.10;;;;;;;24.62;50.84;98837.03;6068815;23;20149;-90
2022/07/01 00:24:39;;;;;;;3.90;0.97;;;;;;;24.56;50.94;98839.56;6043734;23;20196;-90
2022/07/01 00:27:04;;;;;;;3.70;0.93;;;;;;;24.61;51.29;98834.53;6069101;23;20153;-90
2022/07/01 00:29:30;;;;;;;0.70;0.50;;;;;;;24.62;51.10;98831.69;6068644;23;20532;-90
2022/07/01 00:31:55;;;;;;;1.47;0.50;;;;;;;24.57;51.47;98838.56;6068656;23;20149;-89
2022/07/01 00:34:21;;;;;;;3.10;1.10;;;;;;;24.51;51.44;98821.34;6068679;23;20175;-90
2022/07/01 00:36:46;;;;;;;3.50;0.90;;;;;;;24.51;51.33;98831.22;6068628;23;20484;-89
2022/07/01 00:39:12;;;;;;;7.00;1.00;;;;;;;24.55;51.63;98825.38;6068627;23;20153;-90
2022/07/01 00:41:37;;;;;;;1.20;0.67;;;;;;;24.53;51.89;98830.03;6068527;23;20145;-90
2022/07/01 00:44:03;;;;;;;1.93;0.90;;;;;;;24.54;51.61;98829.03;6068618;23;20157;-90
2022/07/01 00:46:29;;;;;;;1.27;0.70;;;;;;;24.55;51.78;98825.38;6068415;23;20173;-90
2022/07/01 00:48:58;;;;;;;2.27;0.73;;;;;;;24.48;51.61;98819.03;6068556;23;20185;-89
2022/07/01 00:51:24;;;;;;;2.13;0.60;;;;;;;24.50;51.72;98821.53;6043329;23;20185;-90
2022/07/01 00:53:50;;;;;;;2.00;0.93;;;;;;;24.47;51.01;98832.59;6069501;23;20149;-90
2022/07/01 00:56:15;;;;;;;3.93;1.30;;;;;;;24.43;51.33;98826.75;6068380;23;20176;-90
2022/07/01 00:58:41;;;;;;;2.03;1.07;;;;;;;24.24;52.35;98821.84;6067329;23;20236;-89
2022/07/01 01:01:06;;;;;;;1.97;0.77;;;;;;;24.16;52.43;98822.69;6068395;23;20566;-90
2022/07/01 01:03:32;;;;;;;2.90;0.90;;;;;;;24.14;52.80;98827.41;6068237;23;20228;-90
2022/07/01 01:05:58;;;;;;;2.80;0.93;;;;;;;24.11;53.10;98826.94;6068417;23;20152;-90
2022/07/01 01:08:25;;;;;;;3.33;1.27;;;;;;;24.15;52.85;98820.19;6068266;23;20176;-90
2022/07/01 01:10:52;;;;;;;2.00;0.97;;;;;;;24.04;53.10;98837.44;6068441;23;20177;-90
2022/07/01 01:13:17;;;;;;;3.27;1.17;;;;;;;24.05;53.52;98838.28;6068687;23;20165;-90
2022/07/01 01:15:43;;;;;;;2.10;1.00;;;;;;;23.85;54.61;98833.31;6069051;23;20153;-90
2022/07/01 01:18:09;;;;;;;4.40;1.20;;;;;;;23.75;54.26;98824.66;6068396;23;20149;-90
2022/07/01 01:20:35;;;;;;;4.33;0.83;;;;;;;23.72;54.64;98825.00;6068418;23;20176;-89
2022/07/01 01:23:01;;;;;;;2.63;1.17;;;;;;;23.77;54.32;98822.63;6068991;23;20164;-89
2022/07/01 01:25:27;;;;;;;1.50;0.83;;;;;;;23.68;54.75;98815.66;6068333;23;20224;-90
2022/07/01 01:27:52;;;;;;;2.70;1.07;;;;;;;23.60;54.96;98810.31;6068644;23;20589;-90
2022/07/01 01:30:18;;;;;;;2.10;0.90;;;;;;;23.61;54.83;98814.66;6068197;23;20644;-89
2022/07/01 01:32:44;;;;;;;10.57;1.17;;;;;;;23.56;54.58;98826.84;6068255;23;20161;-89
2022/07/01 01:35:10;;;;;;;1.80;0.83;;;;;;;23.48;55.20;98821.56;6068594;23;20149;-89
2022/07/01 01:37:36;;;;;;;3.80;1.00;;;;;;;23.51;55.18;98823.88;6068251;23;20164;-89
2022/07/01 01:40:03;;;;;;;4.43;0.90;;;;;;;23.52;55.22;98821.03;6043124;23;20173;-89
2022/07/01 01:42:28;;;;;;;1.87;0.83;;;;;;;23.48;54.87;98832.25;6068180;23;20225;-89
2022/07/01 01:44:54;;;;;;;2.23;1.00;;;;;;;23.39;55.31;98820.72;6043165;23;20172;-89
2022/07/01 01:47:20;;;;;;;2.80;1.13;;;;;;;23.33;55.51;98823.19;6043183;23;20168;-89
2022/07/01 01:49:46;;;;;;;2.77;1.43;;;;;;;23.30;55.30;98819.00;6068428;23;20149;-89
2022/07/01 01:52:11;;;;;;;2.93;1.30;;;;;;;23.24;55.71;98831.22;6043004;23;20169;-89
2022/07/01 01:54:37;;;;;;;3.53;0.97;;;;;;;23.20;56.02;98826.38;6068135;23;20172;-90
2022/07/01 01:57:05;;;;;;;2.60;1.13;;;;;;;23.16;56.80;98827.72;6068138;23;20149;-89
2022/07/01 01:59:30;;;;;;;2.97;1.13;;;;;;;23.17;56.28;98826.72;6068809;23;20229;-89
2022/07/01 02:01:56;;;;;;;2.17;1.03;;;;;;;23.18;56.02;98828.38;6068155;23;20149;-90
2022/07/01 02:04:23;;;;;;;2.50;1.10;;;;;;;23.20;54.87;98829.91;6068131;23;20509;-90
2022/07/01 02:06:49;;;;;;;2.10;1.00;;;;;;;23.08;56.08;98830.41;6067888;23;20233;-90
2022/07/01 02:09:15;;;;;;;2.20;1.03;;;;;;;22.97;56.39;98842.25;6068459;23;20137;-89
2022/07/01 02:11:40;;;;;;;1.53;0.87;;;;;;;22.89;56.70;98850.25;6067872;23;20217;-89
2022/07/01 02:14:06;;;;;;;1.90;0.90;;;;;;;22.84;57.10;98857.09;6068137;23;20183;-89
2022/07/01 02:16:31;;;;;;;2.03;0.83;;;;;;;22.82;57.10;98857.28;6068388;23;20508;-89
2022/07/01 02:18:57;;;;;;;2.23;1.03;;;;;;;22.76;57.47;98849.06;6068066;23;20149;-89
2022/07/01 02:21:22;;;;;;;1.80;0.93;;;;;;;22.77;57.07;98851.59;6069212;23;20596;-89
2022/07/01 02:23:48;;;;;;;3.30;1.10;;;;;;;22.73;57.79;98860.94;6069906;23;20153;-89
2022/07/01 02:26:13;;;;;;;1.87;0.83;;;;;;;22.69;58.00;98846.22;6069868;23;20167;-89
2022/07/01 02:28:39;;;;;;;2.77;1.30;;;;;;;22.67;57.68;98853.56;6069797;23;20149;-89
2022/07/01 02:31:04;;;;;;;1.87;0.83;;;;;;;22.66;57.75;98854.56;6068638;23;20195;-89
2022/07/01 02:33:30;;;;;;;1.73;0.90;;;;;;;22.62;57.78;98856.72;6070102;23;20149;-89
2022/07/01 02:35:56;;;;;;;2.13;0.90;;;;;;;22.61;57.81;98849.66;6070108;23;20157;-90
2022/07/01 02:38:22;;;;;;;1.80;0.70;;;;;;;22.60;57.37;98849.84;6070112;23;20570;-90
2022/07/01 02:40:47;;;;;;;2.00;0.80;;;;;;;22.51;58.27;98856.97;6070077;23;20156;-90
2022/07/01 02:43:13;;;;;;;1.70;0.70;;;;;;;22.42;58.17;98859.81;6069724;23;20148;-90
2022/07/01 02:45:39;;;;;;;3.43;0.97;;;;;;;22.42;58.24;98863.31;6069674;23;20188;-89
2022/07/01 02:48:05;;;;;;;2.77;1.17;;;;;;;22.44;58.27;98853.31;6069690;23;20597;-89
2022/07/01 02:50:31;;;;;;;3.93;0.97;;;;;;;22.48;57.85;98857.31;6069917;23;20181;-89
2022/07/01 02:52:56;;;;;;;2.00;1.23;;;;;;;22.36;58.10;98863.13;6069606;23;20457;-89
2022/07/01 02:55:22;;;;;;;4.07;1.30;;;;;;;22.26;59.15;98868.59;6069616;23;20185;-89
2022/07/01 02:57:51;;;;;;;4.07;0.87;;;;;;;22.16;59.32;98873.22;6069526;23;20173;-89
2022/07/01 03:00:19;;;;;;;3.33;0.90;;;;;;;22.20;58.88;98866.56;6069531;23;20172;-89
2022/07/01 03:02:45;;;;;;;3.87;1.10;;;;;;;22.20;59.34;98873.72;6069523;23;20153;-89
2022/07/01 03:05:11;;;;;;;2.30;1.13;;;;;;;22.22;59.14;98880.56;6069453;23;20537;-89
2022/07/01 03:07:38;;;;;;;2.73;1.20;;;;;;;22.28;59.42;98879.09;6069354;23;20652;-89
2022/07/01 03:10:06;;;;;;;2.53;1.33;;;;;;;22.33;59.72;98882.97;6069406;23;20203;-89
2022/07/01 03:12:34;;;;;;;3.77;1.20;;;;;;;22.29;59.84;98875.44;6069809;23;20153;-89
2022/07/01 03:15:02;;;;;;;6.27;1.83;;;;;;;22.32;60.02;98878.66;6069401;23;20219;-89
2022/07/01 03:17:29;;;;;;;5.20;1.47;;;;;;;22.30;59.95;98869.94;6069375;23;20565;-89
2022/07/01 03:19:55;;;;;;;6.23;1.33;;;;;;;22.34;60.05;98876.63;6069685;23;20149;-89
2022/07/01 03:22:22;;;;;;;8.43;2.20;;;;;;;22.38;59.68;98883.31;6069317;23;20177;-89
2022/07/01 03:24:49;;;;;;;2.47;1.27;;;;;;;22.43;59.05;98877.53;6069690;23;20219;-89
2022/07/01 03:27:16;;;;;;;4.70;1.13;;;;;;;22.34;59.12;98876.63;6069301;23;20231;-90
2022/07/01 03:29:42;;;;;;;2.40;1.57;;;;;;;22.26;59.77;98878.44;6069220;23;20222;-89
2022/07/01 03:32:09;;;;;;;2.67;1.17;;;;;;;22.27;59.15;98885.47;6068957;23;20157;-90
2022/07/01 03:34:45;;;;;;;3.87;1.30;;;;;;;22.33;58.27;98880.28;6069210;23;20600;-90
2022/07/01 03:37:13;;;;;;;4.40;1.33;;;;;;;22.38;57.81;98882.50;6069313;23;20138;-90
2022/07/01 03:39:39;;;;;;;5.57;2.13;;;;;;;22.34;58.39;98876.63;6069162;23;20153;-89
2022/07/01 03:42:06;;;;;;;3.37;1.30;;;;;;;22.29;58.38;98894.97;6069547;23;20157;-89
2022/07/01 03:44:32;;;;;;;2.57;1.50;;;;;;;22.31;58.33;98897.47;6069157;23;20150;-89
2022/07/01 03:46:58;;;;;;;4.57;2.00;;;;;;;22.34;58.08;98903.34;6044456;23;20157;-90
2022/07/01 03:49:24;;;;;;;6.67;1.67;;;;;;;22.37;58.12;98903.03;6069106;23;20180;-89
2022/07/01 03:51:50;;;;;;;7.50;1.87;;;;;;;22.42;57.67;98899.88;6067861;23;20177;-89
2022/07/01 03:54:32;;;;;;;2.97;1.40;;;;;;;22.39;58.62;98895.69;6069012;23;20585;-90
2022/07/01 03:56:58;;;;;;;4.37;2.00;;;;;;;22.32;58.92;98900.00;6069044;23;20138;-90
2022/07/01 03:59:27;;;;;;;6.40;1.60;;;;;;;22.38;58.37;98898.53;6069006;23;20180;-90
2022/07/01 04:01:54;;;;;;;4.00;1.90;;;;;;;22.40;58.91;98897.38;6069335;23;20169;-90
2022/07/01 04:04:20;;;;;;;2.13;1.13;;;;;;;22.48;58.99;98893.91;6044047;23;20161;-89
2022/07/01 04:06:46;;;;;;;2.87;1.47;;;;;;;22.57;59.00;98893.75;6067972;23;20248;-90
2022/07/01 04:09:14;;;;;;;3.90;1.70;;;;;;;22.64;59.12;98892.13;6064444;23;20228;-90
2022/07/01 04:11:41;;;;;;;3.37;1.70;;;;;;;22.73;58.81;98902.84;6066294;23;20193;-89
2022/07/01 04:14:07;;;;;;;3.27;1.60;;;;;;;22.75;58.82;98901.66;6067771;23;20207;-89
2022/07/01 04:16:32;;;;;;;5.07;1.80;;;;;;;22.81;59.31;98898.34;6067745;23;20186;-89
2022/07/01 04:18:58;;;;;;;3.80;1.43;;;;;;;22.84;59.55;98892.69;6068390;23;20153;-90
2022/07/01 04:24:08;;;;;;;2.30;1.07;;;;;;;22.97;59.61;98894.88;6069199;23;20208;-89
2022/07/01 04:26:34;;;;;;;4.30;1.20;;;;;;;23.09;59.52;98898.91;6068813;23;20149;-90
2022/07/01 04:28:59;;;;;;;4.00;1.30;;;;;;;23.22;59.57;98896.56;6068592;23;20149;-89
2022/07/01 04:31:25;;;;;;;4.60;1.83;;;;;;;23.37;59.44;98896.78;6068617;23;20256;-89
2022/07/01 04:33:50;;;;;;;3.50;1.20;;;;;;;23.50;59.59;98884.59;6068711;23;20153;-89
2022/07/01 04:36:16;;;;;;;2.60;1.17;;;;;;;23.60;59.79;98887.91;6068658;23;20149;-89
2022/07/01 04:38:42;;;;;;;2.53;1.33;;;;;;;23.76;58.92;98892.41;6068678;23;20566;-90
2022/07/01 04:43:51;;;;;;;7.67;1.47;;;;;;;24.03;57.00;98893.88;6068932;23;20169;-89
2022/07/01 04:46:17;;;;;;;2.17;1.03;;;;;;;24.07;56.43;98888.00;6068599;23;20149;-89
2022/07/01 04:48:42;;;;;;;2.33;1.07;;;;;;;24.36;55.94;98901.66;6068616;23;20157;-89
2022/07/01 04:51:08;;;;;;;3.17;1.47;;;;;;;24.40;55.63;98904.81;6068460;23;20617;-88
2022/07/01 04:53:33;;;;;;;3.20;2.00;;;;;;;24.52;55.24;98895.38;6068876;23;20220;-89
2022/07/01 04:55:58;;;;;;;2.70;1.17;;;;;;;24.62;54.89;98900.53;6068512;23;20209;-90
2022/07/01 04:58:24;;;;;;;2.70;1.20;;;;;;;24.77;54.38;98904.13;6068521;23;20195;-89
2022/07/01 05:00:50;;;;;;;2.67;1.37;;;;;;;24.98;53.87;98907.06;6043499;23;20195;-89
2022/07/01 05:03:16;;;;;;;3.70;1.87;;;;;;;24.97;53.46;98900.84;6068855;23;20157;-89
2022/07/01 05:05:42;;;;;;;2.83;1.37;;;;;;;25.09;53.39;98901.28;6068459;23;20149;-89
2022/07/01 05:08:07;;;;;;;3.17;1.10;;;;;;;25.22;53.00;98898.84;6068300;23;20200;-89
2022/07/01 05:10:33;;;;;;;3.63;1.43;;;;;;;25.32;53.11;98904.81;6068369;23;20177;-89
2022/07/01 05:12:58;;;;;;;4.60;1.50;;;;;;;25.48;53.34;98903.88;6068746;23;20164;-89
2022/07/01 05:15:24;;;;;;;3.73;1.73;;;;;;;25.76;52.71;98902.25;6068720;23;20184;-89
2022/07/01 05:23:17;;;;;;;3.15;1.38;;;;;;;26.41;51.01;98905.13;6068769;23;20617;-89
2022/07/01 05:25:43;;;;;;;3.08;1.58;;;;;;;26.66;50.91;98903.78;6068338;23;20153;-89
2022/07/01 05:28:08;;;;;;;4.43;1.70;;;;;;;26.89;49.55;98900.97;6043317;23;20598;-89
2022/07/01 05:30:34;;;;;;;2.40;1.13;;;;;;;26.89;49.00;98902.84;6067076;23;20666;-89
2022/07/01 05:32:59;;;;;;;3.77;1.60;;;;;;;27.06;48.24;98902.41;6068295;23;20159;-88
2022/07/01 05:35:24;;;;;;;5.82;1.50;;;;;;;27.32;48.70;98896.47;6068606;23;20464;-90
2022/07/01 05:37:50;;;;;;;3.83;1.20;;;;;;;27.52;48.22;98910.97;6068939;23;20187;-89
2022/07/01 05:40:15;;;;;;;2.95;1.33;;;;;;;27.69;46.65;98906.13;6068060;23;20592;-89
2022/07/01 05:42:41;;;;;;;2.67;1.38;;;;;;;27.77;46.90;98906.00;6068244;23;20565;-89
2022/07/01 05:45:07;;;;;;;2.90;1.60;;;;;;;27.87;46.75;98909.19;6068234;23;20157;-89
2022/07/01 05:47:32;;;;;;;5.75;1.73;;;;;;;28.04;47.04;98899.78;6068164;23;20645;-90
2022/07/01 05:49:57;;;;;;;5.65;1.50;;;;;;;28.13;46.90;98904.00;6043079;23;20654;-89
2022/07/01 05:52:23;;;;;;;2.45;1.35;;;;;;;28.21;46.07;98903.84;6068540;23;20224;-89
2022/07/01 05:54:48;;;;;;;3.28;1.60;;;;;;;28.34;46.10;98906.63;6068497;23;20149;-90
2022/07/01 05:57:15;;;;;;;1.95;1.20;;;;;;;28.42;45.39;98901.06;6045061;23;20188;-89
2022/07/01 05:59:40;;;;;;;3.85;1.55;;;;;;;28.48;45.07;98910.22;6045004;23;20157;-90
2022/07/01 06:02:06;;;;;;;2.83;1.33;;;;;;;28.58;44.47;98914.22;6070464;23;20156;-89
2022/07/01 06:04:31;;;;;;;2.40;1.20;;;;;;;28.69;44.32;98917.41;6070116;23;20153;-89
2022/07/01 06:06:57;;;;;;;3.05;1.55;;;;;;;28.96;44.28;98911.88;6070214;23;20586;-89
2022/07/01 06:09:22;;;;;;;4.57;1.58;;;;;;;29.16;44.32;98917.34;6068938;23;20461;-89
2022/07/01 06:11:48;;;;;;;4.70;1.20;;;;;;;29.21;42.70;98912.19;6070272;23;20688;-90
2022/07/01 06:14:13;;;;;;;2.80;1.40;;;;;;;29.21;43.34;98914.91;6070335;23;20236;-90
2022/07/01 06:16:39;;;;;;;1.70;1.17;;;;;;;29.31;43.41;98907.22;6070670;23;20153;-89
2022/07/01 06:19:06;;;;;;;2.75;1.63;;;;;;;29.62;42.14;98907.47;6070268;23;20168;-90
2022/07/01 06:21:31;;;;;;;2.45;1.40;;;;;;;29.81;41.86;98908.53;6044867;23;20179;-90
2022/07/01 06:23:57;;;;;;;6.35;1.50;;;;;;;30.15;41.61;98911.00;6069935;23;20613;-89
2022/07/01 06:26:22;;;;;;;5.15;1.58;;;;;;;30.27;41.19;98908.44;6069956;23;20156;-90
2022/07/01 06:28:48;;;;;;;4.95;1.80;;;;;;;30.40;40.97;98913.84;6069830;23;20231;-90
2022/07/01 06:31:13;;;;;;;3.35;1.50;;;;;;;30.47;40.90;98906.56;6070087;23;20187;-89
2022/07/01 06:33:39;;;;;;;5.78;1.55;;;;;;;30.70;41.46;98914.19;6069796;23;20149;-90
2022/07/01 06:36:04;;;;;;;2.67;1.02;;;;;;;30.81;40.82;98911.63;6069834;23;20164;-90
2022/07/01 06:38:30;;;;;;;2.10;1.33;;;;;;;31.11;40.12;98911.91;6044667;23;20512;-90
2022/07/01 06:43:39;;;;;;;2.30;1.42;;;;;;;31.86;38.97;98916.41;6070120;23;20159;-90
2022/07/01 06:46:05;;;;;;;7.93;1.48;;;;;;;32.06;38.15;98914.38;6069737;23;20585;-89
2022/07/01 06:48:30;;;;;;;5.30;1.52;;;;;;;32.09;37.60;98911.22;6069715;23;20149;-89
2022/07/01 06:50:56;;;;;;;4.18;1.20;;;;;;;32.22;38.36;98913.78;6069768;23;20273;-90
2022/07/01 06:53:21;;;;;;;3.78;1.20;;;;;;;32.52;38.18;98910.34;6070033;23;20160;-90
2022/07/01 06:55:47;;;;;;;5.22;1.40;;;;;;;32.59;37.50;98909.25;6070033;23;20145;-89
2022/07/01 06:58:12;;;;;;;2.72;1.52;;;;;;;32.64;36.59;98903.94;6069957;23;20589;-91
2022/07/01 07:00:38;;;;;;;2.78;1.40;;;;;;;32.85;37.15;98910.78;6069915;23;20246;-91
2022/07/01 07:03:04;;;;;;;4.88;1.75;;;;;;;33.06;36.61;98913.03;6069904;23;20596;-90
2022/07/01 07:05:32;;;;;;;2.38;1.30;;;;;;;33.21;37.67;98910.72;6069576;23;20150;-90
2022/07/01 07:07:58;;;;;;;4.60;1.40;;;;;;;33.48;36.36;98908.44;6043817;23;20177;-90
2022/07/01 07:10:24;;;;;;;3.97;1.40;;;;;;;33.57;35.22;98900.81;6068240;23;20247;-90
2022/07/01 07:12:49;;;;;;;2.47;1.08;;;;;;;33.52;36.05;98911.53;6069795;23;20153;-90
2022/07/01 07:15:15;;;;;;;2.35;1.15;;;;;;;33.61;36.35;98915.59;6069446;23;20160;-91
2022/07/01 07:17:41;;;;;;;5.57;1.70;;;;;;;33.78;36.28;98909.22;6070120;23;20180;-89
2022/07/01 07:20:07;;;;;;;3.58;1.25;;;;;;;33.84;34.86;98916.44;6069467;23;20150;-89
2022/07/01 07:22:33;;;;;;;5.28;1.30;;;;;;;33.96;35.23;98919.19;6069714;23;20598;-90
2022/07/01 07:24:58;;;;;;;3.03;1.63;;;;;;;34.14;37.11;98921.81;6069694;23;20160;-91
2022/07/01 07:27:24;;;;;;;3.95;1.90;;;;;;;34.27;36.26;98918.88;6068412;23;20157;-92
2022/07/01 07:29:49;;;;;;;3.33;1.40;;;;;;;34.34;35.13;98911.38;6044306;23;20168;-90
2022/07/01 07:32:15;;;;;;;3.42;1.52;;;;;;;34.62;36.45;98907.13;6069968;23;20153;-91
2022/07/01 07:34:40;;;;;;;3.58;1.50;;;;;;;34.59;35.04;98911.97;6070048;23;20224;-92
2022/07/01 07:37:06;;;;;;;3.83;2.63;;;;;;;34.68;35.70;98906.13;6069246;23;20157;-92
2022/07/01 07:39:31;;;;;;;3.40;1.63;;;;;;;34.83;35.19;98904.56;6069560;23;20153;-91
2022/07/01 07:41:57;;;;;;;4.07;1.38;;;;;;;35.09;35.36;98900.47;6069278;23;20160;-92
2022/07/01 07:44:23;;;;;;;2.83;1.77;;;;;;;35.25;34.69;98902.38;6069231;23;20657;-91
2022/07/01 07:46:49;;;;;;;7.82;1.50;;;;;;;35.42;32.64;98905.97;6069093;23;20653;-91
2022/07/01 07:49:14;;;;;;;3.05;1.73;;;;;;;35.60;33.44;98902.22;6069140;23;20265;-93
2022/07/01 07:51:40;;;;;;;6.07;1.65;;;;;;;35.67;33.50;98911.06;6069424;23;20177;-91
2022/07/01 07:54:05;;;;;;;2.42;1.42;;;;;;;35.56;32.46;98910.06;6068906;23;20149;-89
2022/07/01 07:56:31;;;;;;;2.55;1.27;;;;;;;35.68;33.04;98913.56;6069410;23;20228;-88
2022/07/01 07:58:57;;;;;;;2.80;1.48;;;;;;;35.88;33.36;98913.03;6069020;23;20153;-92
2022/07/01 08:01:22;;;;;;;3.33;1.33;;;;;;;35.64;31.23;98914.31;6067914;23;20157;-91
2022/07/01 08:03:48;;;;;;;2.65;1.48;;;;;;;35.60;32.04;98908.50;6067842;23;20161;-89
2022/07/01 08:06:13;;;;;;;4.03;1.42;;;;;;;35.62;31.82;98905.50;6068947;23;20228;-90
2022/07/01 08:08:39;;;;;;;5.32;1.73;;;;;;;35.90;32.96;98915.53;6068880;23;20164;-90
2022/07/01 08:11:05;;;;;;;3.05;1.30;;;;;;;35.77;31.96;98905.78;6069398;23;20227;-91
2022/07/01 08:13:31;;;;;;;7.53;1.30;;;;;;;35.54;32.56;98909.47;6068869;23;20157;-90
2022/07/01 08:15:56;;;;;;;2.58;1.48;;;;;;;35.44;32.23;98909.28;6068818;23;20284;-89
2022/07/01 08:18:22;;;;;;;3.75;1.60;;;;;;;35.64;32.46;98906.94;6069070;23;20216;-89
2022/07/01 08:20:50;;;;;;;2.17;1.30;;;;;;;35.91;32.49;98906.25;6043796;23;20149;-90
2022/07/01 08:23:16;;;;;;;3.83;1.80;;;;;;;36.17;32.72;98911.88;6068657;23;20160;-89
2022/07/01 08:25:41;;;;;;;2.67;1.63;;;;;;;36.44;32.48;98906.53;6068789;23;20153;-90
2022/07/01 08:28:07;;;;;;;5.63;1.50;;;;;;;36.31;31.04;98905.00;6067552;23;20157;-91
2022/07/01 08:30:32;;;;;;;2.28;1.60;;;;;;;36.19;31.88;98906.19;6069010;23;20177;-89
2022/07/01 08:32:58;;;;;;;3.03;1.60;;;;;;;36.23;32.04;98910.06;6043721;23;20153;-92
2022/07/01 08:35:23;;;;;;;3.38;1.65;;;;;;;36.20;31.31;98903.19;6068683;23;20204;-91
2022/07/01 08:37:49;;;;;;;6.32;2.15;;;;;;;36.42;31.54;98903.22;6068693;23;20522;-91
2022/07/01 08:40:14;;;;;;;4.65;1.60;;;;;;;36.50;32.94;98900.09;6068645;23;20523;-90
2022/07/01 08:42:40;;;;;;;4.30;1.50;;;;;;;36.85;31.90;98899.69;6068694;23;20156;-91
2022/07/01 08:45:06;;;;;;;7.65;1.50;;;;;;;36.90;31.70;98895.13;6043623;23;20157;-91
2022/07/01 08:47:32;;;;;;;3.75;1.55;;;;;;;37.08;31.22;98895.91;6043524;23;20157;-91
2022/07/01 08:50:01;;;;;;;5.70;1.73;;;;;;;37.30;31.56;98896.66;6068512;23;20235;-92
2022/07/01 08:52:28;;;;;;;2.50;1.75;;;;;;;37.27;31.28;98891.69;6068546;23;20172;-90
2022/07/01 08:54:54;;;;;;;3.00;1.80;;;;;;;37.20;31.15;98888.34;6068501;23;20232;-89
2022/07/01 08:57:22;;;;;;;2.05;1.10;;;;;;;37.40;30.06;98894.00;6067301;23;20184;-89
2022/07/01 09:00:07;;;;;;;4.30;1.30;;;;;;;37.50;30.26;98896.91;6043396;23;20160;-90
2022/07/01 09:03:02;;;;;;;1.63;1.02;;;;;;;37.82;29.39;98885.91;6068887;23;20140;-90
2022/07/01 09:05:30;;;;;;;3.67;1.17;;;;;;;37.81;28.55;98884.28;6069144;23;20159;-90
2022/07/01 09:08:02;;;;;;;2.97;1.48;;;;;;;37.88;28.65;98883.00;6068340;23;20255;-90
2022/07/01 09:10:31;;;;;;;2.45;1.20;;;;;;;37.74;28.17;98884.47;6068694;23;20260;-89
2022/07/01 09:12:58;;;;;;;4.55;1.52;;;;;;;37.42;27.70;98876.28;6068432;23;20161;-90
2022/07/01 09:15:30;;;;;;;2.45;1.48;;;;;;;37.33;29.10;98887.94;6068398;23;20160;-89
2022/07/01 09:18:15;;;;;;;2.22;1.30;;;;;;;37.51;28.04;98882.09;6069101;23;20523;-90
2022/07/01 09:20:45;;;;;;;3.58;1.75;;;;;;;37.63;29.93;98882.78;6068724;23;20168;-90
2022/07/01 09:23:18;;;;;;;2.83;1.40;;;;;;;37.67;28.62;98886.63;6068355;23;20236;-90
2022/07/01 09:25:47;;;;;;;2.60;1.52;;;;;;;37.74;29.03;98887.22;6067227;23;20530;-89
2022/07/01 09:28:23;;;;;;;4.15;1.35;;;;;;;37.91;29.61;98874.25;6068286;23;20160;-90
2022/07/01 09:30:57;;;;;;;5.28;1.60;;;;;;;38.18;28.96;98884.28;6068254;23;20168;-91
2022/07/01 09:33:25;;;;;;;2.90;1.60;;;;;;;38.49;28.29;98881.47;6068637;23;20148;-90
2022/07/01 09:35:52;;;;;;;2.35;1.45;;;;;;;38.36;27.96;98875.66;6068615;23;20581;-90
2022/07/01 09:38:21;;;;;;;3.20;1.30;;;;;;;38.20;26.77;98879.34;6068252;23;20657;-91
2022/07/01 09:40:50;;;;;;;3.55;1.30;;;;;;;38.52;26.28;98878.19;6068230;23;20151;-90
2022/07/01 09:43:24;;;;;;;3.80;1.05;;;;;;;38.75;26.59;98874.19;6068248;23;20195;-90
2022/07/01 09:46:00;;;;;;;1.70;1.00;;;;;;;38.97;26.42;98872.06;6068600;23;20138;-90
2022/07/01 09:48:47;;;;;;;2.00;1.13;;;;;;;39.09;26.20;98874.56;6068656;23;20220;-91
2022/07/01 09:51:15;;;;;;;1.90;0.95;;;;;;;39.27;24.06;98871.31;6068161;23;20192;-92
2022/07/01 09:53:41;;;;;;;1.33;0.93;;;;;;;39.53;25.75;98872.16;6068491;23;20171;-93
2022/07/01 09:56:07;;;;;;;3.10;1.50;;;;;;;39.44;25.57;98860.09;6068174;23;20180;-91
2022/07/01 09:58:32;;;;;;;2.55;1.20;;;;;;;39.52;25.58;98868.59;6066992;23;20181;-91
2022/07/01 10:00:59;;;;;;;1.95;1.00;;;;;;;39.50;23.58;98862.56;6043082;23;20160;-91
2022/07/01 10:03:26;;;;;;;3.30;1.30;;;;;;;39.41;24.89;98861.47;6068226;23;20149;-91
2022/07/01 10:06:03;;;;;;;2.20;1.13;;;;;;;39.05;23.93;98860.56;6068837;23;20192;-91
2022/07/01 10:08:34;;;;;;;2.30;1.30;;;;;;;39.07;24.48;98850.16;6068058;23;20196;-91
2022/07/01 10:11:15;;;;;;;3.25;1.38;;;;;;;39.25;24.31;98848.84;6068786;23;20268;-91
2022/07/01 10:13:41;;;;;;;2.80;1.50;;;;;;;39.50;25.18;98848.00;6068118;23;20145;-91
2022/07/01 10:16:08;;;;;;;2.15;1.10;;;;;;;39.60;24.76;98848.03;6068758;23;20219;-91
2022/07/01 10:18:34;;;;;;;4.95;1.75;;;;;;;39.43;24.92;98853.78;6068803;23;20149;-94
2022/07/01 10:21:01;;;;;;;1.80;1.10;;;;;;;39.55;25.01;98845.25;6068073;23;20149;-91
2022/07/01 10:23:43;;;;;;;5.03;1.67;;;;;;;39.95;24.99;98850.75;6068001;23;20188;-90
2022/07/01 10:26:10;;;;;;;6.28;1.30;;;;;;;39.98;24.08;98843.88;6067357;23;20467;-92
2022/07/01 10:28:48;;;;;;;2.95;1.30;;;;;;;39.96;25.40;98840.59;6068135;23;20149;-93
2022/07/01 10:31:18;;;;;;;3.80;1.83;;;;;;;40.18;24.94;98839.19;6068638;23;20173;-92
2022/07/01 10:33:46;;;;;;;2.63;1.40;;;;;;;40.30;24.86;98836.94;6068062;23;20160;-92
2022/07/01 10:36:29;;;;;;;2.50;1.45;;;;;;;40.36;24.09;98830.31;6043470;23;20161;-90
2022/07/01 10:39:10;;;;;;;3.67;1.50;;;;;;;40.60;24.02;98835.19;6067996;23;20651;-92
2022/07/01 10:41:55;;;;;;;1.98;1.20;;;;;;;40.74;24.28;98831.53;6068428;23;20153;-92
2022/07/01 10:44:23;;;;;;;0.95;0.77;;;;;;;40.21;24.33;98833.13;6069875;23;20149;-91
2022/07/01 10:46:59;;;;;;;2.83;1.13;;;;;;;40.54;23.13;98828.91;6068564;23;20536;-92
2022/07/01 10:49:37;;;;;;;4.03;1.35;;;;;;;40.64;24.07;98822.53;6068585;23;20149;-91
2022/07/01 10:52:05;;;;;;;2.70;1.13;;;;;;;40.79;24.69;98827.94;6070012;23;20192;-92
2022/07/01 10:54:34;;;;;;;1.88;1.05;;;;;;;40.93;23.27;98818.00;6069669;23;20153;-93
2022/07/01 10:57:15;;;;;;;4.93;1.35;;;;;;;40.78;23.70;98812.56;6068500;23;20171;-91
2022/07/01 10:59:41;;;;;;;2.88;1.30;;;;;;;40.95;22.16;98805.59;6069599;23;20236;-91
2022/07/01 11:02:15;;;;;;;2.05;1.10;;;;;;;40.89;22.57;98795.75;6044490;23;20570;-92
2022/07/01 11:04:40;;;;;;;2.33;1.30;;;;;;;40.71;22.51;98801.88;6070401;23;20136;-92
2022/07/01 11:07:06;;;;;;;3.95;1.25;;;;;;;40.67;23.08;98794.50;6069562;23;20180;-94
2022/07/01 11:09:31;;;;;;;3.60;0.95;;;;;;;40.91;22.66;98792.72;6044616;23;20168;-93
2022/07/01 11:11:57;;;;;;;4.68;1.17;;;;;;;41.23;23.08;98789.44;6068353;23;20625;-91
2022/07/01 11:14:23;;;;;;;6.22;1.35;;;;;;;41.34;22.05;98780.84;6044614;23;20165;-94
2022/07/01 11:16:49;;;;;;;5.10;1.38;;;;;;;41.02;22.34;98783.25;6044683;23;20248;-94
2022/07/01 11:19:18;;;;;;;3.03;1.40;;;;;;;41.27;21.96;98790.50;6068454;23;20189;-94
2022/07/01 11:21:50;;;;;;;2.70;1.27;;;;;;;41.50;22.38;98779.59;6068318;23;20153;-92
2022/07/01 11:24:22;;;;;;;1.85;1.20;;;;;;;41.46;23.15;98778.50;6070012;23;20649;-94
2022/07/01 11:26:49;;;;;;;3.58;1.35;;;;;;;41.23;21.37;98784.75;6068302;23;20181;-94
2022/07/01 11:29:23;;;;;;;2.58;1.05;;;;;;;41.55;22.01;98774.03;6044587;23;20167;-91
2022/07/01 11:31:49;;;;;;;2.17;1.17;;;;;;;41.75;21.97;98791.50;6069618;23;20485;-91
2022/07/01 11:34:18;;;;;;;2.63;1.40;;;;;;;41.65;22.73;98778.59;6069697;23;20161;-93
2022/07/01 11:39:34;;;;;;;2.20;1.30;;;;;;;41.59;21.48;98777.84;6069559;23;20217;-91
2022/07/01 11:42:03;;;;;;;2.40;1.40;;;;;;;41.63;21.84;98781.66;6069230;23;20156;-92
2022/07/01 11:44:32;;;;;;;2.85;1.27;;;;;;;41.83;22.02;98774.31;6069938;23;20149;-92
2022/07/01 11:46:57;;;;;;;4.38;1.42;;;;;;;41.96;21.72;98770.84;6044099;23;20498;-92
2022/07/01 11:49:23;;;;;;;3.15;1.20;;;;;;;41.91;21.62;98776.44;6069557;23;20153;-92